Monday, December 17, 2018, 5:52 AM EST
Back to Local

KAGC, Pittsburgh Allegheny Cty.

Location: West Mifflin, PA, United States Lat: 40.35
Local Time: 5:52 AM EST (10:52 GMT) Lon: -79.917
Time Zone: US/Eastern Elev: 1253 ft

Show me the last for .
Show Decoded

2018-12-17 04:53 METAR KAGC 170953Z 24012KT 7SM OVC012 02/01 A2993 RMK AO2 SLP150 T00220006 =
2018-12-17 03:53 METAR KAGC 170853Z 24013KT 7SM OVC011 02/01 A2993 RMK AO2 SLP150 T00220006 58007
                 =
2018-12-17 02:53 METAR KAGC 170753Z 23007KT 9SM OVC013 02/01 A2995 RMK AO2 SLP155 T00220006 =
2018-12-17 02:35 METAR KAGC 170735Z 22009KT 10SM BKN014 02/01 A2995 RMK AO2 T00220006 =
2018-12-17 02:20 METAR KAGC 170720Z 23007KT 10SM BKN016 03/01 A2995 RMK AO2 T00280006 =
2018-12-17 01:53 METAR KAGC 170653Z 25010KT 10SM FEW015 03/01 A2995 RMK AO2 SLP157 T00280011 =
2018-12-17 01:22 METAR KAGC 170622Z 29004KT 10SM SCT018 03/01 A2996 RMK AO2 T00330011 =
2018-12-17 00:53 METAR KAGC 170553Z 29007G19KT 10SM OVC018 04/01 A2995 RMK AO2 SLP156 T00390011
                 10050 20039 56008 =
2018-12-17 00:00 METAR KAGC 170500Z 27011G18KT 10SM OVC019 05/02 A2995 RMK AO2 T00500022 =
2018-12-16 23:53 METAR KAGC 170453Z 28010G21KT 10SM OVC010 05/02 A2996 RMK AO2 SLP157 T00500022
                 400560033 =
2018-12-16 23:13 METAR KAGC 170413Z 26013G19KT 9SM BKN008 OVC021 04/03 A2996 RMK AO2 T00440033 =
2018-12-16 23:00 METAR KAGC 170400Z 24008KT 7SM FEW008 OVC022 04/04 A2997 RMK AO2 T00440039 =
2018-12-16 22:53 METAR KAGC 170353Z 25006KT 7SM BKN007 OVC022 04/04 A2997 RMK AO2 SLP161
                 T00440039 =
2018-12-16 21:53 METAR KAGC 170253Z 24006KT 5SM BR BKN007 OVC013 05/04 A2998 RMK AO2 SLP163
                 T00500044 50001 =
2018-12-16 21:44 METAR KAGC 170244Z 25008KT 5SM BR BKN007 OVC013 05/04 A2998 RMK AO2 CIG 006V011
                 T00500039 =
2018-12-16 21:28 METAR KAGC 170228Z AUTO 24007KT 9SM OVC014 05/04 A2998 RMK AO2 T00500039 =
2018-12-16 20:53 METAR KAGC 170153Z 25007KT 10SM OVC015 05/04 A2998 RMK AO2 SLP165 T00500039 =
2018-12-16 20:44 METAR KAGC 170144Z 26006KT 10SM OVC015 05/04 A2999 RMK AO2 T00500039 =
2018-12-16 19:53 METAR KAGC 170053Z 26008KT 10SM OVC013 04/04 A2998 RMK AO2 SLP166 T00440039 =
2018-12-16 19:42 METAR KAGC 170042Z 26007KT 10SM OVC013 04/04 A2998 RMK AO2 T00440039 =
2018-12-16 18:53 METAR KAGC 162353Z 27005KT 9SM FEW011 OVC018 04/04 A2997 RMK AO2 SLP162
                 T00440039 10044 20039 50008 =
2018-12-16 18:50 METAR KAGC 162350Z 26006KT 9SM FEW011 OVC018 04/04 A2998 RMK AO2 =
2018-12-16 18:28 METAR KAGC 162328Z 27005KT 8SM OVC014 04/04 A2998 RMK AO2 T00440039 =
2018-12-16 17:53 METAR KAGC 162253Z 27006KT 9SM OVC018 04/03 A2997 RMK AO2 SLP160 T00390033 =
2018-12-16 17:11 METAR KAGC 162211Z 29005KT 10SM OVC015 04/03 A2996 RMK AO2 T00440033 =
2018-12-16 16:53 METAR KAGC 162153Z 30003KT 10SM BKN009 OVC012 04/03 A2995 RMK AO2 SLP154
                 T00440033 =
2018-12-16 16:35 METAR KAGC 162135Z 31003KT 10SM OVC009 04/03 A2994 RMK AO2 T00440033 =
2018-12-16 16:09 METAR KAGC 162109Z 33004KT 10SM OVC011 04/03 A2993 RMK AO2 T00440033 =
2018-12-16 15:53 METAR KAGC 162053Z 36004KT 10SM OVC009 04/03 A2992 RMK AO2 CIG 008V013 SLP145
                 T00390033 53009 =
2018-12-16 14:53 METAR KAGC 161953Z 33004KT 10SM OVC009 04/03 A2991 RMK AO2 SLP140 T00390033 =
2018-12-16 13:53 METAR KAGC 161853Z 35005KT 10SM OVC007 04/03 A2990 RMK AO2 SLP135 T00390033 =
2018-12-16 13:30 METAR KAGC 161830Z 35004KT 5SM BR OVC007 04/04 A2989 RMK AO2 T00440039 =
2018-12-16 13:20 METAR KAGC 161820Z 35004KT 9SM OVC010 04/04 A2990 RMK AO2 CIG 005V012 T00440039
                 =
2018-12-16 12:53 METAR KAGC 161753Z 35006KT 7SM OVC008 04/03 A2990 RMK AO2 CIG 005V011 SLP135
                 60021 T00390033 10044 20033 58006 =
2018-12-16 11:53 METAR KAGC 161653Z 35005KT 10SM OVC007 04/04 A2990 RMK AO2 RAE45 CIG 005V009
                 SLP138 P0001 T00440039 =
2018-12-16 10:53 METAR KAGC 161553Z 02003KT 5SM -RA BR BKN007 OVC025 04/04 A2991 RMK AO2 SLP140
                 P0002 T00440039 =
2018-12-16 09:53 METAR KAGC 161453Z 04006KT 5SM -RA BR BKN007 OVC038 03/03 A2991 RMK AO2 SLP142
                 P0004 60018 T00330028 51005 =
2018-12-16 08:53 METAR KAGC 161353Z 02008KT 5SM -RA BR OVC006 03/03 A2991 RMK AO2 CIG 004V008
                 SLP140 P0006 T00330028 =
2018-12-16 07:53 METAR KAGC 161253Z VRB05KT 5SM -RA BR OVC007 03/03 A2990 RMK AO2 SLP137 P0008
                 T00330033 =
2018-12-16 06:53 METAR KAGC 161153Z 03007KT 5SM -RA BR BKN007 OVC017 04/03 A2990 RMK AO2 SLP135
                 P0004 60037 70084 T00390033 10050 20039 53002 =
2018-12-16 06:43 METAR KAGC 161143Z 04008KT 5SM -RA BR BKN007 OVC017 04/03 A2990 RMK AO2 P0003
                 T00390033 =
2018-12-16 06:36 METAR KAGC 161136Z 04008KT 350V070 7SM -RA SCT007 BKN014 OVC019 04/03 A2990 RMK
                 AO2 P0002 T00390033 =
2018-12-16 06:01 METAR KAGC 161101Z VRB05KT 6SM -RA BR SCT007 BKN021 OVC035 04/03 A2989 RMK AO2
                 P0000 T00390033 =
2018-12-16 05:53 METAR KAGC 161053Z 05007KT 6SM -RA BR BKN007 BKN023 OVC035 04/03 A2989 RMK AO2
                 SLP132 P0005 T00390033 =

Support USWX by starting your Amazon purchase here.